createdAt,value
2022-09-24T00:00:52.399Z,72.82
2022-09-24T00:03:59.052Z,72.73
2022-09-24T00:07:01.088Z,72.13
2022-09-24T00:10:03.221Z,72.33
2022-09-24T00:13:08.727Z,71.42
2022-09-24T00:16:12.634Z,71.20
2022-09-24T00:19:14.838Z,71.14
2022-09-24T00:22:16.906Z,71.68
2022-09-24T00:25:37.222Z,71.38
2022-09-24T00:28:39.254Z,71.08
2022-09-24T00:31:41.517Z,70.54
2022-09-24T00:34:43.631Z,69.73
2022-09-24T00:37:45.694Z,68.85
2022-09-24T00:40:47.824Z,68.94
2022-09-24T00:43:50.262Z,68.53
2022-09-24T00:46:52.345Z,68.66
2022-09-24T00:50:19.499Z,69.33
2022-09-24T00:53:23.160Z,69.35
2022-09-24T00:56:25.402Z,69.63
2022-09-24T00:59:27.455Z,70.07
2022-09-24T01:02:31.045Z,69.68
2022-09-24T01:05:33.145Z,69.58
2022-09-24T01:08:35.203Z,69.45
2022-09-24T01:12:01.285Z,70.19
2022-09-24T01:15:28.898Z,70.91
2022-09-24T01:18:39.951Z,70.20
2022-09-24T01:21:49.218Z,70.40
2022-09-24T01:25:02.853Z,70.43
2022-09-24T01:28:34.931Z,70.43
2022-09-24T01:31:47.062Z,70.87
2022-09-24T01:35:02.250Z,70.72
2022-09-24T01:38:14.283Z,71.28
2022-09-24T01:41:16.439Z,70.97
2022-09-24T01:44:18.778Z,71.03
2022-09-24T01:47:33.517Z,71.26
2022-09-24T01:51:02.492Z,71.02
2022-09-24T01:54:07.947Z,71.68
2022-09-24T01:57:15.574Z,71.52
2022-09-24T02:00:19.192Z,72.20
2022-09-24T02:03:26.841Z,72.61
2022-09-24T02:06:36.214Z,73.51
2022-09-24T02:09:41.078Z,74.59
2022-09-24T02:12:44.504Z,74.17
2022-09-24T02:15:49.596Z,73.66
2022-09-24T02:18:54.217Z,74.86
2022-09-24T02:21:56.299Z,75.36
2022-09-24T02:24:59.908Z,75.14
2022-09-24T02:28:03.299Z,74.83
2022-09-24T02:31:18.820Z,74.68
2022-09-24T02:34:27.979Z,74.26
2022-09-24T02:37:34.132Z,74.17
2022-09-24T02:40:36.407Z,74.22
2022-09-24T02:43:38.635Z,74.27
2022-09-24T02:46:41.761Z,73.77
2022-09-24T02:49:43.986Z,75.02
2022-09-24T02:52:46.041Z,74.29
2022-09-24T02:55:48.894Z,74.01
2022-09-24T02:58:50.980Z,73.85
2022-09-24T03:01:53.294Z,74.42
2022-09-24T03:04:55.743Z,73.70
2022-09-24T03:07:59.199Z,73.75
2022-09-24T03:11:01.326Z,74.18
2022-09-24T03:14:03.440Z,74.66
2022-09-24T03:17:05.515Z,74.81
2022-09-24T03:20:08.196Z,75.67
2022-09-24T03:23:10.245Z,75.48
2022-09-24T03:26:12.589Z,75.13
2022-09-24T03:29:14.698Z,76.43
2022-09-24T03:32:16.772Z,76.16
2022-09-24T03:35:19.728Z,76.63
2022-09-24T03:38:21.783Z,76.41
2022-09-24T03:41:27.693Z,76.29
2022-09-24T03:44:29.864Z,77.10
2022-09-24T03:47:32.388Z,76.96
2022-09-24T03:50:38.040Z,77.33
2022-09-24T03:53:40.267Z,77.29
2022-09-24T03:56:43.171Z,77.73
2022-09-24T03:59:45.655Z,77.59
2022-09-24T04:02:47.809Z,78.26
2022-09-24T04:05:51.419Z,77.84
2022-09-24T04:08:53.661Z,78.31
2022-09-24T04:11:56.259Z,77.84
2022-09-24T04:14:58.380Z,78.51
2022-09-24T04:18:00.730Z,78.45
2022-09-24T04:21:02.912Z,77.81
2022-09-24T04:24:05.510Z,78.35
2022-09-24T04:27:07.680Z,78.18
2022-09-24T04:30:14.011Z,78.45
2022-09-24T04:33:16.552Z,78.70
2022-09-24T04:36:18.646Z,78.89
2022-09-24T04:39:26.566Z,79.47
2022-09-24T04:42:28.708Z,79.63
2022-09-24T04:45:31.307Z,78.60
2022-09-24T04:48:34.607Z,79.29
2022-09-24T04:51:36.806Z,79.67
2022-09-24T04:54:38.859Z,79.56
2022-09-24T04:57:41.355Z,78.97
2022-09-24T05:00:43.559Z,79.16
2022-09-24T05:03:45.739Z,79.70
2022-09-24T05:06:48.453Z,80.07
2022-09-24T05:09:50.592Z,79.64
2022-09-24T05:12:53.014Z,79.66
2022-09-24T05:15:55.124Z,79.38
2022-09-24T05:18:58.183Z,79.72
2022-09-24T05:22:00.346Z,79.61
2022-09-24T05:25:02.416Z,79.35
2022-09-24T05:28:04.543Z,78.73
2022-09-24T05:31:06.645Z,78.70
2022-09-24T05:34:08.911Z,78.58
2022-09-24T05:37:11.383Z,79.11
2022-09-24T05:40:32.159Z,78.80
2022-09-24T05:43:34.356Z,79.71
2022-09-24T05:46:36.646Z,79.59
2022-09-24T05:49:39.356Z,79.03
2022-09-24T05:52:41.699Z,79.03
2022-09-24T05:55:44.087Z,80.13
2022-09-24T05:58:50.211Z,80.32
2022-09-24T06:01:52.517Z,79.47
2022-09-24T06:04:54.679Z,79.60
2022-09-24T06:07:56.739Z,79.12
2022-09-24T06:11:05.300Z,79.55
2022-09-24T06:14:08.618Z,79.28
2022-09-24T06:17:11.033Z,79.11
2022-09-24T06:20:13.912Z,79.00
2022-09-24T06:23:15.992Z,78.13
2022-09-24T06:26:18.937Z,79.00
2022-09-24T06:29:20.981Z,79.70
2022-09-24T06:32:24.687Z,79.68
2022-09-24T06:35:26.742Z,79.47
2022-09-24T06:38:29.182Z,79.26
2022-09-24T06:41:31.227Z,79.19
2022-09-24T06:44:34.593Z,78.58
2022-09-24T06:47:36.668Z,78.85
2022-09-24T06:50:41.989Z,78.58
2022-09-24T06:53:44.108Z,78.76
2022-09-24T06:56:46.722Z,78.27
2022-09-24T06:59:48.809Z,77.87
2022-09-24T07:02:52.242Z,77.83
2022-09-24T07:05:54.733Z,78.06
2022-09-24T07:08:57.689Z,78.10
2022-09-24T07:12:03.091Z,78.56
2022-09-24T07:15:05.928Z,79.37
2022-09-24T07:18:08.580Z,79.30
2022-09-24T07:21:10.688Z,78.95
2022-09-24T07:24:12.832Z,79.11
2022-09-24T07:27:15.046Z,78.68
2022-09-24T07:30:17.327Z,78.13
2022-09-24T07:33:19.457Z,78.17
2022-09-24T07:36:21.903Z,77.84
2022-09-24T07:39:24.823Z,78.02
2022-09-24T07:42:27.971Z,76.54
2022-09-24T07:45:31.518Z,77.66
2022-09-24T07:48:33.594Z,77.84
2022-09-24T07:51:36.402Z,77.08
2022-09-24T07:54:38.658Z,76.77
2022-09-24T07:57:40.705Z,77.73
2022-09-24T08:00:42.934Z,76.72
2022-09-24T08:03:47.969Z,76.73
2022-09-24T08:06:50.075Z,76.93
2022-09-24T08:09:52.125Z,76.96
2022-09-24T08:12:54.355Z,77.08
2022-09-24T08:15:59.560Z,76.84
2022-09-24T08:19:01.687Z,77.04
2022-09-24T08:22:05.397Z,75.91
2022-09-24T08:25:07.974Z,76.58
2022-09-24T08:28:13.206Z,77.10
2022-09-24T08:31:16.302Z,76.28
2022-09-24T08:34:18.448Z,74.43
2022-09-24T08:37:20.517Z,74.49
2022-09-24T08:40:26.477Z,74.68
2022-09-24T08:44:08.539Z,75.79
2022-09-24T08:47:48.340Z,76.25
2022-09-24T08:51:00.798Z,76.27
2022-09-24T08:54:10.686Z,75.95
2022-09-24T08:57:14.709Z,75.44
2022-09-24T09:00:16.889Z,74.52
2022-09-24T09:03:37.220Z,74.09
2022-09-24T09:06:57.377Z,73.37
2022-09-24T09:10:08.181Z,73.62
2022-09-24T09:13:24.160Z,72.78
2022-09-24T09:16:34.039Z,74.62
2022-09-24T09:19:36.122Z,73.65
2022-09-24T09:22:50.208Z,73.07
2022-09-24T09:25:56.976Z,73.86
2022-09-24T09:29:01.054Z,68.92
2022-09-24T09:32:25.176Z,70.47
2022-09-24T09:35:58.453Z,69.71
2022-09-24T09:39:18.441Z,69.04
2022-09-24T09:42:36.029Z,66.81
2022-09-24T09:46:15.418Z,66.76
2022-09-24T09:49:17.557Z,67.10
2022-09-24T09:52:25.895Z,67.24
2022-09-24T09:55:36.141Z,68.34
2022-09-24T09:58:42.558Z,66.86
2022-09-24T10:01:46.911Z,66.19
2022-09-24T10:04:53.204Z,65.23
2022-09-24T10:07:58.644Z,66.15
2022-09-24T10:11:01.765Z,64.91
2022-09-24T10:14:05.099Z,63.18
2022-09-24T10:17:12.165Z,63.25
2022-09-24T10:20:29.404Z,62.78
2022-09-24T10:23:48.590Z,60.19
2022-09-24T10:26:50.717Z,58.59
2022-09-24T10:30:15.646Z,59.17
2022-09-24T10:33:18.705Z,59.56
2022-09-24T10:36:28.731Z,59.55
2022-09-24T10:39:31.046Z,59.84
2022-09-24T10:42:33.101Z,57.54
2022-09-24T10:46:13.112Z,57.23
2022-09-24T10:50:02.909Z,60.46
2022-09-24T10:53:08.967Z,60.01
2022-09-24T10:56:42.303Z,60.13
2022-09-24T11:00:14.379Z,60.26
2022-09-24T11:03:19.238Z,61.01
2022-09-24T11:06:49.266Z,60.58
2022-09-24T11:10:03.907Z,60.18
2022-09-24T11:13:36.040Z,58.92
2022-09-24T11:16:44.012Z,59.30
2022-09-24T11:20:29.834Z,61.06
2022-09-24T11:24:09.611Z,63.40
2022-09-24T11:27:36.272Z,64.06
2022-09-24T11:30:59.101Z,64.08
2022-09-24T11:34:16.926Z,63.45
2022-09-24T11:37:56.042Z,63.00
2022-09-24T11:41:25.818Z,62.05
2022-09-24T11:45:02.001Z,59.90
2022-09-24T11:48:31.624Z,61.70
2022-09-24T11:52:00.568Z,61.80
2022-09-24T11:55:31.787Z,65.71
2022-09-24T11:58:59.012Z,64.53
2022-09-24T12:02:17.991Z,63.71
2022-09-24T12:05:30.721Z,64.26
2022-09-24T12:08:44.604Z,62.39
2022-09-24T12:11:50.380Z,61.05
2022-09-24T12:15:02.794Z,61.78
2022-09-24T12:18:12.727Z,59.35
2022-09-24T12:21:22.855Z,57.46
2022-09-24T12:24:37.903Z,55.61
2022-09-24T12:27:40.342Z,56.39
2022-09-24T12:31:12.469Z,54.35
2022-09-24T12:34:31.882Z,54.35
2022-09-24T12:37:38.695Z,54.10
2022-09-24T12:41:11.681Z,53.16
2022-09-24T12:44:26.701Z,54.50
2022-09-24T12:47:33.715Z,55.74
2022-09-24T12:50:35.819Z,55.64
2022-09-24T12:53:41.510Z,52.54
2022-09-24T12:56:43.684Z,49.59
2022-09-24T12:59:48.683Z,48.34
2022-09-24T13:02:51.558Z,49.42
2022-09-24T13:05:53.863Z,49.32
2022-09-24T13:08:55.949Z,49.36
2022-09-24T13:12:22.703Z,49.96
2022-09-24T13:15:35.896Z,51.26
2022-09-24T13:18:38.044Z,52.08
2022-09-24T13:21:40.185Z,54.01
2022-09-24T13:24:51.336Z,52.11
2022-09-24T13:28:02.272Z,49.37
2022-09-24T13:31:23.925Z,46.26
2022-09-24T13:34:30.003Z,45.67
2022-09-24T13:37:40.323Z,47.11
2022-09-24T13:40:48.614Z,49.06
2022-09-24T13:44:23.745Z,44.67
2022-09-24T13:47:49.908Z,38.49
2022-09-24T13:50:52.512Z,40.57
2022-09-24T13:54:23.542Z,43.55
2022-09-24T13:57:29.676Z,46.68
2022-09-24T14:00:32.396Z,48.58
2022-09-24T14:03:35.732Z,49.54
2022-09-24T14:06:43.456Z,51.57
2022-09-24T14:09:47.722Z,50.64
2022-09-24T14:13:24.364Z,52.62
2022-09-24T14:16:26.648Z,50.68
2022-09-24T14:19:28.934Z,50.90
2022-09-24T14:22:36.029Z,49.08
2022-09-24T14:25:38.078Z,37.32
2022-09-24T14:28:40.164Z,47.94
2022-09-24T14:31:50.673Z,47.58
2022-09-24T14:34:55.218Z,49.91
2022-09-24T14:38:17.693Z,47.97
2022-09-24T14:41:23.355Z,52.64
2022-09-24T14:44:29.000Z,44.36
2022-09-24T14:47:33.925Z,47.62
2022-09-24T14:50:40.591Z,47.25
2022-09-24T14:53:42.707Z,47.41
2022-09-24T14:56:45.285Z,41.36
2022-09-24T14:59:47.548Z,34.10
2022-09-24T15:03:13.307Z,43.92
2022-09-24T15:06:20.952Z,47.29
2022-09-24T15:09:30.523Z,48.17
2022-09-24T15:12:35.504Z,38.69
2022-09-24T15:15:37.626Z,32.26
2022-09-24T15:18:39.716Z,42.43
2022-09-24T15:21:41.947Z,44.88
2022-09-24T15:24:44.037Z,46.65
2022-09-24T15:27:46.225Z,48.50
2022-09-24T15:30:48.563Z,40.43
2022-09-24T15:33:50.848Z,46.66
2022-09-24T15:36:59.366Z,49.70
2022-09-24T15:40:16.767Z,50.54
2022-09-24T15:43:24.106Z,52.05
2022-09-24T15:46:26.495Z,53.22
2022-09-24T15:49:28.603Z,58.64
2022-09-24T15:52:31.955Z,60.24
2022-09-24T15:55:36.282Z,62.05
2022-09-24T15:58:38.774Z,63.51
2022-09-24T16:01:41.898Z,55.75
2022-09-24T16:04:44.287Z,50.54
2022-09-24T16:07:46.573Z,55.76
2022-09-24T16:10:48.844Z,56.24
2022-09-24T16:13:51.196Z,54.40
2022-09-24T16:16:53.256Z,51.01
2022-09-24T16:19:55.307Z,49.80
2022-09-24T16:22:57.367Z,45.78
2022-09-24T16:26:00.640Z,52.00
2022-09-24T16:29:03.450Z,54.75
2022-09-24T16:32:05.569Z,53.57
2022-09-24T16:35:11.023Z,57.52
2022-09-24T16:38:13.775Z,60.37
2022-09-24T16:41:17.023Z,53.51
2022-09-24T16:44:19.370Z,54.33
2022-09-24T16:47:21.624Z,46.72
2022-09-24T16:50:26.961Z,44.04
2022-09-24T16:53:29.104Z,46.04
2022-09-24T16:56:31.219Z,45.84
2022-09-24T16:59:33.606Z,50.92
2022-09-24T17:02:36.146Z,55.60
2022-09-24T17:05:40.669Z,56.91
2022-09-24T17:09:01.648Z,57.84
2022-09-24T17:12:03.858Z,60.18
2022-09-24T17:15:07.889Z,63.60
2022-09-24T17:18:10.004Z,62.97
2022-09-24T17:21:12.628Z,63.69
2022-09-24T17:24:19.220Z,63.76
2022-09-24T17:27:23.898Z,66.17
2022-09-24T17:30:26.859Z,66.44
2022-09-24T17:33:42.876Z,67.45
2022-09-24T17:36:45.840Z,68.53
2022-09-24T17:39:48.040Z,69.17
2022-09-24T17:42:50.095Z,69.27
2022-09-24T17:46:03.385Z,69.57
2022-09-24T17:49:05.969Z,69.93
2022-09-24T17:52:08.302Z,71.33
2022-09-24T17:55:10.519Z,70.69
2022-09-24T17:58:12.583Z,71.76
2022-09-24T18:01:21.173Z,71.39
2022-09-24T18:04:25.701Z,71.39
2022-09-24T18:07:27.814Z,72.57
2022-09-24T18:10:29.860Z,72.29
2022-09-24T18:13:35.320Z,72.39
2022-09-24T18:16:37.444Z,72.57
2022-09-24T18:19:39.527Z,72.45
2022-09-24T18:22:41.570Z,72.92
2022-09-24T18:25:43.633Z,73.58
2022-09-24T18:28:54.005Z,73.62
2022-09-24T18:31:56.067Z,73.14
2022-09-24T18:34:58.825Z,73.72
2022-09-24T18:38:01.115Z,73.00
2022-09-24T18:41:20.857Z,72.50
2022-09-24T18:44:22.982Z,71.86
2022-09-24T18:47:25.070Z,72.65
2022-09-24T18:50:29.021Z,72.11
2022-09-24T18:53:31.516Z,72.53
2022-09-24T18:56:33.850Z,73.01
2022-09-24T18:59:44.348Z,74.19
2022-09-24T19:02:46.506Z,73.83
2022-09-24T19:05:51.474Z,74.17
2022-09-24T19:08:53.546Z,73.59
2022-09-24T19:11:56.028Z,73.90
2022-09-24T19:14:58.727Z,73.18
2022-09-24T19:18:00.755Z,73.42
2022-09-24T19:21:06.483Z,72.76
2022-09-24T19:24:09.916Z,73.71
2022-09-24T19:27:12.030Z,73.34
2022-09-24T19:30:14.141Z,72.74
2022-09-24T19:33:16.995Z,74.94
2022-09-24T19:36:19.713Z,75.90
2022-09-24T19:39:21.826Z,75.65
2022-09-24T19:42:26.682Z,73.90
2022-09-24T19:45:29.920Z,73.66
2022-09-24T19:48:32.604Z,73.68
2022-09-24T19:51:35.010Z,73.55
2022-09-24T19:54:37.549Z,73.65
2022-09-24T19:57:40.183Z,73.13
2022-09-24T20:00:43.109Z,73.07
2022-09-24T20:03:45.211Z,73.44
2022-09-24T20:06:47.875Z,73.33
2022-09-24T20:09:49.924Z,73.68
2022-09-24T20:12:52.378Z,72.73
2022-09-24T20:15:58.830Z,72.30
2022-09-24T20:19:01.717Z,72.17
2022-09-24T20:22:03.948Z,72.34
2022-09-24T20:25:06.779Z,72.59
2022-09-24T20:28:14.090Z,72.92
2022-09-24T20:31:18.161Z,72.19
2022-09-24T20:34:33.591Z,72.19
2022-09-24T20:37:36.012Z,71.77
2022-09-24T20:40:39.825Z,73.28
2022-09-24T20:43:42.031Z,73.74
2022-09-24T20:46:44.153Z,74.11
2022-09-24T20:49:46.235Z,74.05
2022-09-24T20:52:48.327Z,73.92
2022-09-24T20:55:53.597Z,74.10
2022-09-24T20:58:55.712Z,73.17
2022-09-24T21:01:57.895Z,73.05
2022-09-24T21:05:00.022Z,72.75
2022-09-24T21:08:08.583Z,72.93
2022-09-24T21:11:13.675Z,73.34
2022-09-24T21:14:15.739Z,72.13
2022-09-24T21:17:18.595Z,71.16
2022-09-24T21:20:20.644Z,70.97
2022-09-24T21:23:24.984Z,71.50
2022-09-24T21:26:30.750Z,72.06
2022-09-24T21:29:32.815Z,72.88
2022-09-24T21:32:35.758Z,74.59
2022-09-24T21:35:37.827Z,74.93
2022-09-24T21:38:39.906Z,73.61
2022-09-24T21:41:42.176Z,72.49
2022-09-24T21:44:44.280Z,71.92
2022-09-24T21:47:46.348Z,72.12
2022-09-24T21:50:48.500Z,72.11
2022-09-24T21:53:52.534Z,71.84
2022-09-24T21:56:54.603Z,71.03
2022-09-24T21:59:59.455Z,70.63
2022-09-24T22:03:01.541Z,70.77
2022-09-24T22:06:04.055Z,72.07
2022-09-24T22:09:06.870Z,72.28
2022-09-24T22:12:09.700Z,72.46
2022-09-24T22:15:11.902Z,72.17
2022-09-24T22:18:14.086Z,72.68
2022-09-24T22:21:16.186Z,72.29
2022-09-24T22:24:18.228Z,71.96
2022-09-24T22:27:20.274Z,73.09
2022-09-24T22:30:22.320Z,74.12
2022-09-24T22:33:43.229Z,75.15
2022-09-24T22:36:45.405Z,74.38
2022-09-24T22:39:47.444Z,75.58
2022-09-24T22:42:49.541Z,74.16
2022-09-24T22:46:00.507Z,73.76
2022-09-24T22:49:03.435Z,73.16
2022-09-24T22:52:05.707Z,71.77
2022-09-24T22:55:08.488Z,72.45
2022-09-24T22:58:10.612Z,73.01
2022-09-24T23:01:21.639Z,70.49
2022-09-24T23:04:24.160Z,71.01
2022-09-24T23:07:26.288Z,70.76
2022-09-24T23:10:30.005Z,69.69
2022-09-24T23:13:32.840Z,69.00
2022-09-24T23:16:36.218Z,69.04
2022-09-24T23:19:51.312Z,69.20
2022-09-24T23:22:53.348Z,69.66
2022-09-24T23:26:05.428Z,71.30
2022-09-24T23:29:08.627Z,71.46
2022-09-24T23:32:11.517Z,71.39
2022-09-24T23:35:13.615Z,70.46
2022-09-24T23:38:15.677Z,70.08
2022-09-24T23:41:17.713Z,71.24
2022-09-24T23:44:19.886Z,71.53
2022-09-24T23:47:22.571Z,71.51
2022-09-24T23:50:24.775Z,71.22
2022-09-24T23:53:27.017Z,70.96
2022-09-24T23:56:29.117Z,69.93
2022-09-24T23:59:31.303Z,68.78
